sensor_id;sensor_type;location;lat;lon;timestamp;P1;durP1;ratioP1;P2;durP2;ratioP2
71715;SDS011;59568;52.128;5.434;2023-08-06T00:01:38;7.55;;;3.95;;
71715;SDS011;59568;52.128;5.434;2023-08-06T00:04:05;7.75;;;4.57;;
71715;SDS011;59568;52.128;5.434;2023-08-06T00:06:31;8.90;;;4.68;;
71715;SDS011;59568;52.128;5.434;2023-08-06T00:08:58;8.57;;;4.00;;
71715;SDS011;59568;52.128;5.434;2023-08-06T00:11:25;6.85;;;3.70;;
71715;SDS011;59568;52.128;5.434;2023-08-06T00:13:52;6.43;;;4.18;;
71715;SDS011;59568;52.128;5.434;2023-08-06T00:16:18;6.45;;;4.00;;
71715;SDS011;59568;52.128;5.434;2023-08-06T00:18:45;7.72;;;4.20;;
71715;SDS011;59568;52.128;5.434;2023-08-06T00:21:12;7.40;;;3.80;;
71715;SDS011;59568;52.128;5.434;2023-08-06T00:23:39;6.40;;;4.10;;
71715;SDS011;59568;52.128;5.434;2023-08-06T00:26:07;7.40;;;3.47;;
71715;SDS011;59568;52.128;5.434;2023-08-06T00:28:34;6.65;;;4.35;;
71715;SDS011;59568;52.128;5.434;2023-08-06T00:31:01;7.95;;;4.18;;
71715;SDS011;59568;52.128;5.434;2023-08-06T00:33:27;8.97;;;3.60;;
71715;SDS011;59568;52.128;5.434;2023-08-06T00:35:54;7.40;;;3.83;;
71715;SDS011;59568;52.128;5.434;2023-08-06T00:38:21;9.02;;;4.25;;
71715;SDS011;59568;52.128;5.434;2023-08-06T00:40:48;9.00;;;3.95;;
71715;SDS011;59568;52.128;5.434;2023-08-06T00:43:14;6.45;;;3.92;;
71715;SDS011;59568;52.128;5.434;2023-08-06T00:45:42;6.60;;;3.27;;
71715;SDS011;59568;52.128;5.434;2023-08-06T00:48:09;7.10;;;4.10;;
71715;SDS011;59568;52.128;5.434;2023-08-06T00:50:36;6.68;;;3.88;;
71715;SDS011;59568;52.128;5.434;2023-08-06T00:53:03;7.68;;;3.72;;
71715;SDS011;59568;52.128;5.434;2023-08-06T00:55:30;7.10;;;4.25;;
71715;SDS011;59568;52.128;5.434;2023-08-06T00:57:56;7.00;;;3.80;;
71715;SDS011;59568;52.128;5.434;2023-08-06T01:00:25;7.65;;;3.97;;
71715;SDS011;59568;52.128;5.434;2023-08-06T01:02:52;5.80;;;3.63;;
71715;SDS011;59568;52.128;5.434;2023-08-06T01:05:20;7.03;;;4.10;;
71715;SDS011;59568;52.128;5.434;2023-08-06T01:15:47;7.55;;;4.25;;
71715;SDS011;59568;52.128;5.434;2023-08-06T01:18:16;7.88;;;4.45;;
71715;SDS011;59568;52.128;5.434;2023-08-06T01:20:42;9.82;;;4.75;;
71715;SDS011;59568;52.128;5.434;2023-08-06T01:23:09;10.70;;;4.60;;
71715;SDS011;59568;52.128;5.434;2023-08-06T01:25:40;8.38;;;4.32;;
71715;SDS011;59568;52.128;5.434;2023-08-06T01:28:22;7.53;;;4.43;;
71715;SDS011;59568;52.128;5.434;2023-08-06T01:30:57;8.00;;;4.57;;
71715;SDS011;59568;52.128;5.434;2023-08-06T01:33:28;7.85;;;4.50;;
71715;SDS011;59568;52.128;5.434;2023-08-06T01:35:58;9.17;;;5.00;;
71715;SDS011;59568;52.128;5.434;2023-08-06T01:38:25;8.90;;;5.05;;
71715;SDS011;59568;52.128;5.434;2023-08-06T01:40:54;8.45;;;4.63;;
71715;SDS011;59568;52.128;5.434;2023-08-06T01:43:21;10.05;;;4.85;;
71715;SDS011;59568;52.128;5.434;2023-08-06T01:45:48;8.35;;;4.65;;
71715;SDS011;59568;52.128;5.434;2023-08-06T01:48:15;11.07;;;5.07;;
71715;SDS011;59568;52.128;5.434;2023-08-06T01:50:41;8.13;;;4.82;;
71715;SDS011;59568;52.128;5.434;2023-08-06T01:53:08;8.57;;;5.50;;
71715;SDS011;59568;52.128;5.434;2023-08-06T01:55:35;8.73;;;4.93;;
71715;SDS011;59568;52.128;5.434;2023-08-06T01:58:01;9.80;;;5.07;;
71715;SDS011;59568;52.128;5.434;2023-08-06T02:00:29;11.43;;;5.80;;
71715;SDS011;59568;52.128;5.434;2023-08-06T02:02:55;11.77;;;5.20;;
71715;SDS011;59568;52.128;5.434;2023-08-06T02:05:22;10.57;;;5.35;;
71715;SDS011;59568;52.128;5.434;2023-08-06T02:07:49;11.52;;;5.70;;
71715;SDS011;59568;52.128;5.434;2023-08-06T02:10:16;9.45;;;6.20;;
71715;SDS011;59568;52.128;5.434;2023-08-06T02:12:42;12.00;;;6.17;;
71715;SDS011;59568;52.128;5.434;2023-08-06T02:15:09;9.65;;;5.63;;
71715;SDS011;59568;52.128;5.434;2023-08-06T02:17:36;14.15;;;7.22;;
71715;SDS011;59568;52.128;5.434;2023-08-06T02:20:02;11.88;;;6.72;;
71715;SDS011;59568;52.128;5.434;2023-08-06T02:22:29;12.07;;;6.32;;
71715;SDS011;59568;52.128;5.434;2023-08-06T02:24:56;11.63;;;6.60;;
71715;SDS011;59568;52.128;5.434;2023-08-06T02:27:22;9.20;;;6.10;;
71715;SDS011;59568;52.128;5.434;2023-08-06T02:29:49;11.30;;;6.68;;
71715;SDS011;59568;52.128;5.434;2023-08-06T02:32:16;15.57;;;6.90;;
71715;SDS011;59568;52.128;5.434;2023-08-06T02:34:42;11.38;;;6.85;;
71715;SDS011;59568;52.128;5.434;2023-08-06T02:37:09;10.77;;;6.83;;
71715;SDS011;59568;52.128;5.434;2023-08-06T02:39:35;10.65;;;6.72;;
71715;SDS011;59568;52.128;5.434;2023-08-06T02:42:08;8.65;;;6.00;;
71715;SDS011;59568;52.128;5.434;2023-08-06T02:44:35;9.10;;;5.85;;
71715;SDS011;59568;52.128;5.434;2023-08-06T02:47:02;11.27;;;6.45;;
71715;SDS011;59568;52.128;5.434;2023-08-06T02:49:29;10.57;;;6.30;;
71715;SDS011;59568;52.128;5.434;2023-08-06T02:51:55;11.38;;;5.95;;
71715;SDS011;59568;52.128;5.434;2023-08-06T02:54:22;9.85;;;5.70;;
71715;SDS011;59568;52.128;5.434;2023-08-06T02:56:48;11.73;;;5.85;;
71715;SDS011;59568;52.128;5.434;2023-08-06T02:59:16;8.88;;;5.68;;
71715;SDS011;59568;52.128;5.434;2023-08-06T03:01:42;8.07;;;4.90;;
71715;SDS011;59568;52.128;5.434;2023-08-06T03:04:09;8.65;;;5.28;;
71715;SDS011;59568;52.128;5.434;2023-08-06T03:06:36;9.85;;;5.03;;
71715;SDS011;59568;52.128;5.434;2023-08-06T03:09:02;7.65;;;4.95;;
71715;SDS011;59568;52.128;5.434;2023-08-06T03:11:30;10.07;;;5.25;;
71715;SDS011;59568;52.128;5.434;2023-08-06T03:13:56;8.43;;;5.13;;
71715;SDS011;59568;52.128;5.434;2023-08-06T03:16:23;11.05;;;5.70;;
71715;SDS011;59568;52.128;5.434;2023-08-06T03:18:50;9.02;;;5.13;;
71715;SDS011;59568;52.128;5.434;2023-08-06T03:21:17;9.40;;;4.43;;
71715;SDS011;59568;52.128;5.434;2023-08-06T03:23:46;10.60;;;5.28;;
71715;SDS011;59568;52.128;5.434;2023-08-06T03:26:13;10.27;;;4.73;;
71715;SDS011;59568;52.128;5.434;2023-08-06T03:28:40;7.22;;;5.10;;
71715;SDS011;59568;52.128;5.434;2023-08-06T03:31:06;8.57;;;4.88;;
71715;SDS011;59568;52.128;5.434;2023-08-06T03:33:33;8.65;;;4.97;;
71715;SDS011;59568;52.128;5.434;2023-08-06T03:36:00;8.63;;;5.47;;
71715;SDS011;59568;52.128;5.434;2023-08-06T03:38:26;9.10;;;5.70;;
71715;SDS011;59568;52.128;5.434;2023-08-06T03:40:54;7.68;;;4.93;;
71715;SDS011;59568;52.128;5.434;2023-08-06T03:43:20;9.43;;;5.00;;
71715;SDS011;59568;52.128;5.434;2023-08-06T03:45:47;6.65;;;4.30;;
71715;SDS011;59568;52.128;5.434;2023-08-06T03:48:14;9.23;;;5.65;;
71715;SDS011;59568;52.128;5.434;2023-08-06T03:50:40;8.60;;;4.73;;
71715;SDS011;59568;52.128;5.434;2023-08-06T03:53:07;9.00;;;5.15;;
71715;SDS011;59568;52.128;5.434;2023-08-06T03:55:34;9.15;;;5.38;;
71715;SDS011;59568;52.128;5.434;2023-08-06T03:58:00;10.25;;;5.95;;
71715;SDS011;59568;52.128;5.434;2023-08-06T04:00:27;7.57;;;5.70;;
71715;SDS011;59568;52.128;5.434;2023-08-06T04:02:54;10.37;;;6.10;;
71715;SDS011;59568;52.128;5.434;2023-08-06T04:05:21;9.75;;;5.93;;
71715;SDS011;59568;52.128;5.434;2023-08-06T04:07:48;11.63;;;6.30;;
71715;SDS011;59568;52.128;5.434;2023-08-06T04:10:14;10.90;;;6.18;;
71715;SDS011;59568;52.128;5.434;2023-08-06T04:12:41;11.18;;;7.50;;
71715;SDS011;59568;52.128;5.434;2023-08-06T04:15:08;10.97;;;6.93;;
71715;SDS011;59568;52.128;5.434;2023-08-06T04:17:35;12.60;;;6.95;;
71715;SDS011;59568;52.128;5.434;2023-08-06T04:20:01;11.13;;;6.05;;
71715;SDS011;59568;52.128;5.434;2023-08-06T04:22:29;10.70;;;6.47;;
71715;SDS011;59568;52.128;5.434;2023-08-06T04:24:55;11.95;;;6.80;;
71715;SDS011;59568;52.128;5.434;2023-08-06T04:27:22;14.93;;;7.70;;
71715;SDS011;59568;52.128;5.434;2023-08-06T04:29:49;15.48;;;7.93;;
71715;SDS011;59568;52.128;5.434;2023-08-06T04:32:15;11.15;;;7.60;;
71715;SDS011;59568;52.128;5.434;2023-08-06T04:34:43;12.52;;;7.97;;
71715;SDS011;59568;52.128;5.434;2023-08-06T04:37:10;12.82;;;7.13;;
71715;SDS011;59568;52.128;5.434;2023-08-06T04:39:37;14.20;;;7.97;;
71715;SDS011;59568;52.128;5.434;2023-08-06T04:42:03;12.52;;;6.88;;
71715;SDS011;59568;52.128;5.434;2023-08-06T04:44:31;12.50;;;7.32;;
71715;SDS011;59568;52.128;5.434;2023-08-06T04:46:57;14.82;;;7.53;;
71715;SDS011;59568;52.128;5.434;2023-08-06T04:49:24;13.90;;;7.30;;
71715;SDS011;59568;52.128;5.434;2023-08-06T04:51:51;12.73;;;8.47;;
71715;SDS011;59568;52.128;5.434;2023-08-06T04:54:18;15.30;;;8.48;;
71715;SDS011;59568;52.128;5.434;2023-08-06T04:56:45;11.18;;;7.88;;
71715;SDS011;59568;52.128;5.434;2023-08-06T04:59:11;12.05;;;7.63;;
71715;SDS011;59568;52.128;5.434;2023-08-06T05:01:38;14.20;;;9.05;;
71715;SDS011;59568;52.128;5.434;2023-08-06T05:04:05;16.23;;;8.80;;
71715;SDS011;59568;52.128;5.434;2023-08-06T05:06:32;14.88;;;8.18;;
71715;SDS011;59568;52.128;5.434;2023-08-06T05:08:58;16.88;;;9.60;;
71715;SDS011;59568;52.128;5.434;2023-08-06T05:11:25;13.82;;;8.82;;
71715;SDS011;59568;52.128;5.434;2023-08-06T05:13:52;15.82;;;8.95;;
71715;SDS011;59568;52.128;5.434;2023-08-06T05:16:18;12.67;;;8.30;;
71715;SDS011;59568;52.128;5.434;2023-08-06T05:18:45;14.65;;;8.43;;
71715;SDS011;59568;52.128;5.434;2023-08-06T05:21:13;13.88;;;8.00;;
71715;SDS011;59568;52.128;5.434;2023-08-06T05:23:39;14.20;;;8.80;;
71715;SDS011;59568;52.128;5.434;2023-08-06T05:26:06;16.42;;;8.63;;
71715;SDS011;59568;52.128;5.434;2023-08-06T05:28:33;13.87;;;8.20;;
71715;SDS011;59568;52.128;5.434;2023-08-06T05:31:06;16.27;;;9.63;;
71715;SDS011;59568;52.128;5.434;2023-08-06T05:33:32;14.30;;;9.02;;
71715;SDS011;59568;52.128;5.434;2023-08-06T05:35:59;13.10;;;8.57;;
71715;SDS011;59568;52.128;5.434;2023-08-06T05:38:26;14.93;;;9.13;;
71715;SDS011;59568;52.128;5.434;2023-08-06T05:40:53;16.43;;;10.07;;
71715;SDS011;59568;52.128;5.434;2023-08-06T05:43:20;12.65;;;7.70;;
71715;SDS011;59568;52.128;5.434;2023-08-06T05:45:46;15.30;;;8.93;;
71715;SDS011;59568;52.128;5.434;2023-08-06T05:48:16;13.60;;;8.10;;
71715;SDS011;59568;52.128;5.434;2023-08-06T05:50:43;15.70;;;9.27;;
71715;SDS011;59568;52.128;5.434;2023-08-06T05:53:09;16.10;;;9.03;;
71715;SDS011;59568;52.128;5.434;2023-08-06T05:55:36;17.13;;;9.55;;
71715;SDS011;59568;52.128;5.434;2023-08-06T05:58:03;13.48;;;9.05;;
71715;SDS011;59568;52.128;5.434;2023-08-06T06:00:29;12.93;;;8.13;;
71715;SDS011;59568;52.128;5.434;2023-08-06T06:02:56;16.92;;;9.43;;
71715;SDS011;59568;52.128;5.434;2023-08-06T06:05:23;16.00;;;9.30;;
71715;SDS011;59568;52.128;5.434;2023-08-06T06:07:49;14.45;;;9.13;;
71715;SDS011;59568;52.128;5.434;2023-08-06T06:10:17;14.93;;;8.73;;
71715;SDS011;59568;52.128;5.434;2023-08-06T06:12:44;13.75;;;8.45;;
71715;SDS011;59568;52.128;5.434;2023-08-06T06:15:11;13.82;;;8.90;;
71715;SDS011;59568;52.128;5.434;2023-08-06T06:17:37;15.13;;;9.03;;
71715;SDS011;59568;52.128;5.434;2023-08-06T06:20:04;15.15;;;9.18;;
71715;SDS011;59568;52.128;5.434;2023-08-06T06:22:32;15.73;;;9.00;;
71715;SDS011;59568;52.128;5.434;2023-08-06T06:24:58;14.10;;;8.85;;
71715;SDS011;59568;52.128;5.434;2023-08-06T06:27:25;14.07;;;8.65;;
71715;SDS011;59568;52.128;5.434;2023-08-06T06:29:52;15.93;;;9.47;;
71715;SDS011;59568;52.128;5.434;2023-08-06T06:32:21;15.13;;;8.93;;
71715;SDS011;59568;52.128;5.434;2023-08-06T06:34:48;16.02;;;9.30;;
71715;SDS011;59568;52.128;5.434;2023-08-06T06:37:15;14.18;;;8.48;;
71715;SDS011;59568;52.128;5.434;2023-08-06T06:39:41;15.77;;;10.02;;
71715;SDS011;59568;52.128;5.434;2023-08-06T06:42:08;16.00;;;8.77;;
71715;SDS011;59568;52.128;5.434;2023-08-06T06:44:35;15.82;;;8.65;;
71715;SDS011;59568;52.128;5.434;2023-08-06T06:47:01;14.70;;;9.32;;
71715;SDS011;59568;52.128;5.434;2023-08-06T06:49:28;14.48;;;9.65;;
71715;SDS011;59568;52.128;5.434;2023-08-06T06:51:55;15.32;;;8.93;;
71715;SDS011;59568;52.128;5.434;2023-08-06T06:54:22;16.30;;;8.77;;
71715;SDS011;59568;52.128;5.434;2023-08-06T06:56:48;13.25;;;8.43;;
71715;SDS011;59568;52.128;5.434;2023-08-06T06:59:15;13.75;;;8.48;;
71715;SDS011;59568;52.128;5.434;2023-08-06T07:01:42;15.18;;;9.25;;
71715;SDS011;59568;52.128;5.434;2023-08-06T07:04:08;15.20;;;8.82;;
71715;SDS011;59568;52.128;5.434;2023-08-06T07:06:35;13.70;;;8.97;;
71715;SDS011;59568;52.128;5.434;2023-08-06T07:09:01;15.93;;;9.20;;
71715;SDS011;59568;52.128;5.434;2023-08-06T07:11:28;14.35;;;8.55;;
71715;SDS011;59568;52.128;5.434;2023-08-06T07:14:01;14.52;;;8.93;;
71715;SDS011;59568;52.128;5.434;2023-08-06T07:16:28;14.10;;;9.15;;
71715;SDS011;59568;52.128;5.434;2023-08-06T07:18:55;14.37;;;8.70;;
71715;SDS011;59568;52.128;5.434;2023-08-06T07:21:22;11.82;;;7.97;;
71715;SDS011;59568;52.128;5.434;2023-08-06T07:23:49;14.65;;;8.95;;
71715;SDS011;59568;52.128;5.434;2023-08-06T07:26:16;16.20;;;10.10;;
71715;SDS011;59568;52.128;5.434;2023-08-06T07:28:43;14.30;;;8.52;;
71715;SDS011;59568;52.128;5.434;2023-08-06T07:31:11;14.17;;;9.53;;
71715;SDS011;59568;52.128;5.434;2023-08-06T07:33:38;14.27;;;8.48;;
71715;SDS011;59568;52.128;5.434;2023-08-06T07:36:08;14.30;;;8.27;;
71715;SDS011;59568;52.128;5.434;2023-08-06T07:38:39;12.90;;;8.15;;
71715;SDS011;59568;52.128;5.434;2023-08-06T07:41:06;14.95;;;8.55;;
71715;SDS011;59568;52.128;5.434;2023-08-06T07:43:32;15.27;;;8.60;;
71715;SDS011;59568;52.128;5.434;2023-08-06T07:46:00;13.82;;;8.80;;
71715;SDS011;59568;52.128;5.434;2023-08-06T07:48:27;14.77;;;8.50;;
71715;SDS011;59568;52.128;5.434;2023-08-06T07:50:54;13.57;;;8.90;;
71715;SDS011;59568;52.128;5.434;2023-08-06T07:53:25;15.82;;;8.93;;
71715;SDS011;59568;52.128;5.434;2023-08-06T07:55:56;13.67;;;8.90;;
71715;SDS011;59568;52.128;5.434;2023-08-06T07:58:23;13.20;;;8.30;;
71715;SDS011;59568;52.128;5.434;2023-08-06T08:00:54;13.05;;;8.35;;
71715;SDS011;59568;52.128;5.434;2023-08-06T08:03:23;12.73;;;8.40;;
71715;SDS011;59568;52.128;5.434;2023-08-06T08:05:50;13.07;;;8.55;;
71715;SDS011;59568;52.128;5.434;2023-08-06T08:08:24;14.80;;;8.43;;
71715;SDS011;59568;52.128;5.434;2023-08-06T08:10:54;16.65;;;8.30;;
71715;SDS011;59568;52.128;5.434;2023-08-06T08:13:25;13.63;;;8.70;;
71715;SDS011;59568;52.128;5.434;2023-08-06T08:15:57;13.95;;;8.65;;
71715;SDS011;59568;52.128;5.434;2023-08-06T08:18:28;13.45;;;8.02;;
71715;SDS011;59568;52.128;5.434;2023-08-06T08:20:56;13.40;;;7.90;;
71715;SDS011;59568;52.128;5.434;2023-08-06T08:23:26;13.30;;;8.32;;
71715;SDS011;59568;52.128;5.434;2023-08-06T08:25:53;12.18;;;7.32;;
71715;SDS011;59568;52.128;5.434;2023-08-06T08:28:20;8.10;;;4.85;;
71715;SDS011;59568;52.128;5.434;2023-08-06T08:30:51;7.22;;;5.03;;
71715;SDS011;59568;52.128;5.434;2023-08-06T08:33:20;5.50;;;3.33;;
71715;SDS011;59568;52.128;5.434;2023-08-06T08:35:50;5.88;;;3.83;;
71715;SDS011;59568;52.128;5.434;2023-08-06T08:38:18;5.18;;;3.30;;
71715;SDS011;59568;52.128;5.434;2023-08-06T08:40:46;4.72;;;2.65;;
71715;SDS011;59568;52.128;5.434;2023-08-06T08:43:23;5.20;;;2.15;;
71715;SDS011;59568;52.128;5.434;2023-08-06T08:45:51;6.00;;;1.90;;
71715;SDS011;59568;52.128;5.434;2023-08-06T08:48:19;2.95;;;1.77;;
71715;SDS011;59568;52.128;5.434;2023-08-06T08:50:47;3.72;;;1.70;;
71715;SDS011;59568;52.128;5.434;2023-08-06T08:53:21;2.55;;;1.52;;
71715;SDS011;59568;52.128;5.434;2023-08-06T08:55:50;4.15;;;1.95;;
71715;SDS011;59568;52.128;5.434;2023-08-06T08:58:35;2.50;;;1.20;;
71715;SDS011;59568;52.128;5.434;2023-08-06T09:01:04;3.65;;;1.60;;
71715;SDS011;59568;52.128;5.434;2023-08-06T09:03:34;2.38;;;1.27;;
71715;SDS011;59568;52.128;5.434;2023-08-06T09:06:03;2.65;;;1.10;;
71715;SDS011;59568;52.128;5.434;2023-08-06T09:08:36;4.70;;;1.20;;
71715;SDS011;59568;52.128;5.434;2023-08-06T09:11:11;1.90;;;1.00;;
71715;SDS011;59568;52.128;5.434;2023-08-06T09:13:38;3.08;;;1.10;;
71715;SDS011;59568;52.128;5.434;2023-08-06T09:16:05;6.30;;;1.30;;
71715;SDS011;59568;52.128;5.434;2023-08-06T09:18:32;2.15;;;1.05;;
71715;SDS011;59568;52.128;5.434;2023-08-06T09:21:01;3.83;;;1.30;;
71715;SDS011;59568;52.128;5.434;2023-08-06T09:23:28;2.13;;;1.20;;
71715;SDS011;59568;52.128;5.434;2023-08-06T09:25:57;5.55;;;1.40;;
71715;SDS011;59568;52.128;5.434;2023-08-06T09:28:28;3.92;;;1.50;;
71715;SDS011;59568;52.128;5.434;2023-08-06T09:31:05;2.92;;;1.20;;
71715;SDS011;59568;52.128;5.434;2023-08-06T09:33:33;2.42;;;1.17;;
71715;SDS011;59568;52.128;5.434;2023-08-06T09:36:12;3.70;;;1.40;;
71715;SDS011;59568;52.128;5.434;2023-08-06T09:38:46;4.32;;;1.70;;
71715;SDS011;59568;52.128;5.434;2023-08-06T09:41:26;2.55;;;1.50;;
71715;SDS011;59568;52.128;5.434;2023-08-06T09:43:55;2.50;;;1.50;;
71715;SDS011;59568;52.128;5.434;2023-08-06T09:46:26;3.78;;;1.45;;
71715;SDS011;59568;52.128;5.434;2023-08-06T09:49:04;2.43;;;1.60;;
71715;SDS011;59568;52.128;5.434;2023-08-06T09:51:38;3.63;;;2.20;;
71715;SDS011;59568;52.128;5.434;2023-08-06T09:54:06;3.60;;;1.70;;
71715;SDS011;59568;52.128;5.434;2023-08-06T09:56:52;4.45;;;1.75;;
71715;SDS011;59568;52.128;5.434;2023-08-06T09:59:25;3.97;;;2.33;;
71715;SDS011;59568;52.128;5.434;2023-08-06T10:01:55;4.13;;;2.03;;
71715;SDS011;59568;52.128;5.434;2023-08-06T10:04:25;5.10;;;2.67;;
71715;SDS011;59568;52.128;5.434;2023-08-06T10:07:03;4.15;;;2.25;;
71715;SDS011;59568;52.128;5.434;2023-08-06T10:09:32;4.45;;;2.70;;
71715;SDS011;59568;52.128;5.434;2023-08-06T10:12:00;4.88;;;2.90;;
71715;SDS011;59568;52.128;5.434;2023-08-06T10:14:28;6.00;;;2.77;;
71715;SDS011;59568;52.128;5.434;2023-08-06T10:17:00;5.00;;;2.50;;
71715;SDS011;59568;52.128;5.434;2023-08-06T10:19:30;4.85;;;2.72;;
71715;SDS011;59568;52.128;5.434;2023-08-06T10:22:09;4.20;;;2.60;;
71715;SDS011;59568;52.128;5.434;2023-08-06T10:24:51;7.78;;;3.30;;
71715;SDS011;59568;52.128;5.434;2023-08-06T10:27:22;5.17;;;2.83;;
71715;SDS011;59568;52.128;5.434;2023-08-06T10:32:54;5.82;;;3.03;;
71715;SDS011;59568;52.128;5.434;2023-08-06T10:35:46;7.70;;;2.97;;
71715;SDS011;59568;52.128;5.434;2023-08-06T10:38:26;6.05;;;2.55;;
71715;SDS011;59568;52.128;5.434;2023-08-06T10:43:28;5.32;;;2.38;;
71715;SDS011;59568;52.128;5.434;2023-08-06T10:46:03;5.40;;;3.00;;
71715;SDS011;59568;52.128;5.434;2023-08-06T10:48:39;4.72;;;2.30;;
71715;SDS011;59568;52.128;5.434;2023-08-06T10:51:08;6.97;;;2.70;;
71715;SDS011;59568;52.128;5.434;2023-08-06T10:53:41;5.83;;;2.70;;
71715;SDS011;59568;52.128;5.434;2023-08-06T10:56:53;6.40;;;2.30;;
71715;SDS011;59568;52.128;5.434;2023-08-06T11:00:15;6.40;;;2.47;;
71715;SDS011;59568;52.128;5.434;2023-08-06T11:02:46;5.22;;;2.33;;
71715;SDS011;59568;52.128;5.434;2023-08-06T11:05:52;4.70;;;2.05;;
71715;SDS011;59568;52.128;5.434;2023-08-06T11:08:46;5.33;;;1.90;;
71715;SDS011;59568;52.128;5.434;2023-08-06T11:11:31;5.72;;;1.73;;
71715;SDS011;59568;52.128;5.434;2023-08-06T11:14:01;4.18;;;1.85;;
71715;SDS011;59568;52.128;5.434;2023-08-06T11:16:45;5.55;;;1.60;;
71715;SDS011;59568;52.128;5.434;2023-08-06T11:19:22;4.53;;;1.90;;
71715;SDS011;59568;52.128;5.434;2023-08-06T11:22:06;3.10;;;1.60;;
71715;SDS011;59568;52.128;5.434;2023-08-06T11:24:37;2.92;;;1.38;;
71715;SDS011;59568;52.128;5.434;2023-08-06T11:27:16;3.33;;;1.40;;
71715;SDS011;59568;52.128;5.434;2023-08-06T11:29:44;4.90;;;1.80;;
71715;SDS011;59568;52.128;5.434;2023-08-06T11:32:11;3.20;;;1.60;;
71715;SDS011;59568;52.128;5.434;2023-08-06T11:34:42;4.17;;;1.50;;
71715;SDS011;59568;52.128;5.434;2023-08-06T11:37:09;4.13;;;1.13;;
71715;SDS011;59568;52.128;5.434;2023-08-06T11:39:44;2.40;;;1.10;;
71715;SDS011;59568;52.128;5.434;2023-08-06T11:42:13;4.60;;;1.60;;
71715;SDS011;59568;52.128;5.434;2023-08-06T11:44:40;3.38;;;1.33;;
71715;SDS011;59568;52.128;5.434;2023-08-06T11:47:15;5.00;;;1.27;;
71715;SDS011;59568;52.128;5.434;2023-08-06T11:49:44;4.03;;;1.08;;
71715;SDS011;59568;52.128;5.434;2023-08-06T11:54:45;3.25;;;1.42;;
71715;SDS011;59568;52.128;5.434;2023-08-06T11:57:13;2.90;;;1.50;;
71715;SDS011;59568;52.128;5.434;2023-08-06T11:59:43;4.13;;;1.63;;
71715;SDS011;59568;52.128;5.434;2023-08-06T12:02:11;3.13;;;1.13;;
71715;SDS011;59568;52.128;5.434;2023-08-06T12:05:00;3.85;;;1.33;;
71715;SDS011;59568;52.128;5.434;2023-08-06T12:07:28;3.65;;;1.48;;
71715;SDS011;59568;52.128;5.434;2023-08-06T12:09:59;6.07;;;1.05;;
71715;SDS011;59568;52.128;5.434;2023-08-06T12:12:25;3.23;;;1.07;;
71715;SDS011;59568;52.128;5.434;2023-08-06T12:14:53;4.05;;;1.23;;
71715;SDS011;59568;52.128;5.434;2023-08-06T12:17:20;4.97;;;1.25;;
71715;SDS011;59568;52.128;5.434;2023-08-06T12:19:47;4.90;;;1.00;;
71715;SDS011;59568;52.128;5.434;2023-08-06T12:22:14;1.98;;;0.95;;
71715;SDS011;59568;52.128;5.434;2023-08-06T12:24:42;3.23;;;0.90;;
71715;SDS011;59568;52.128;5.434;2023-08-06T12:27:10;3.35;;;0.70;;
71715;SDS011;59568;52.128;5.434;2023-08-06T12:29:49;1.70;;;0.70;;
71715;SDS011;59568;52.128;5.434;2023-08-06T12:32:17;4.47;;;0.70;;
71715;SDS011;59568;52.128;5.434;2023-08-06T12:34:49;1.90;;;0.70;;
71715;SDS011;59568;52.128;5.434;2023-08-06T12:37:19;3.23;;;0.70;;
71715;SDS011;59568;52.128;5.434;2023-08-06T12:39:46;3.65;;;0.70;;
71715;SDS011;59568;52.128;5.434;2023-08-06T12:42:22;3.08;;;0.60;;
71715;SDS011;59568;52.128;5.434;2023-08-06T12:44:57;2.90;;;0.70;;
71715;SDS011;59568;52.128;5.434;2023-08-06T12:58:01;2.47;;;0.73;;
71715;SDS011;59568;52.128;5.434;2023-08-06T13:00:59;3.20;;;0.98;;
71715;SDS011;59568;52.128;5.434;2023-08-06T13:03:26;2.60;;;0.70;;
71715;SDS011;59568;52.128;5.434;2023-08-06T13:06:07;2.40;;;0.80;;
71715;SDS011;59568;52.128;5.434;2023-08-06T13:09:57;2.22;;;0.77;;
71715;SDS011;59568;52.128;5.434;2023-08-06T13:17:34;8.07;;;0.70;;
71715;SDS011;59568;52.128;5.434;2023-08-06T13:20:22;2.85;;;0.70;;
71715;SDS011;59568;52.128;5.434;2023-08-06T13:22:55;2.10;;;0.77;;
71715;SDS011;59568;52.128;5.434;2023-08-06T13:25:24;3.42;;;0.70;;
71715;SDS011;59568;52.128;5.434;2023-08-06T13:28:28;3.58;;;0.90;;
71715;SDS011;59568;52.128;5.434;2023-08-06T13:31:42;2.30;;;0.60;;
71715;SDS011;59568;52.128;5.434;2023-08-06T13:34:19;3.67;;;1.00;;
71715;SDS011;59568;52.128;5.434;2023-08-06T13:36:56;3.57;;;0.97;;
71715;SDS011;59568;52.128;5.434;2023-08-06T13:39:27;4.75;;;1.10;;
71715;SDS011;59568;52.128;5.434;2023-08-06T13:41:55;3.85;;;1.20;;
71715;SDS011;59568;52.128;5.434;2023-08-06T13:44:24;5.03;;;1.63;;
71715;SDS011;59568;52.128;5.434;2023-08-06T13:47:03;4.95;;;1.45;;
71715;SDS011;59568;52.128;5.434;2023-08-06T13:49:35;3.83;;;1.40;;
71715;SDS011;59568;52.128;5.434;2023-08-06T13:52:40;3.72;;;0.98;;
71715;SDS011;59568;52.128;5.434;2023-08-06T13:55:11;2.88;;;0.90;;
71715;SDS011;59568;52.128;5.434;2023-08-06T13:57:41;4.60;;;1.00;;
71715;SDS011;59568;52.128;5.434;2023-08-06T14:00:14;2.47;;;0.80;;
71715;SDS011;59568;52.128;5.434;2023-08-06T14:02:41;4.03;;;0.90;;
71715;SDS011;59568;52.128;5.434;2023-08-06T14:05:11;3.45;;;0.75;;
71715;SDS011;59568;52.128;5.434;2023-08-06T14:07:38;1.73;;;0.82;;
71715;SDS011;59568;52.128;5.434;2023-08-06T14:10:05;2.38;;;0.90;;
71715;SDS011;59568;52.128;5.434;2023-08-06T14:12:32;3.30;;;1.00;;
71715;SDS011;59568;52.128;5.434;2023-08-06T14:14:59;2.70;;;1.20;;
71715;SDS011;59568;52.128;5.434;2023-08-06T14:17:26;2.75;;;0.88;;
71715;SDS011;59568;52.128;5.434;2023-08-06T14:19:55;3.97;;;0.82;;
71715;SDS011;59568;52.128;5.434;2023-08-06T14:22:23;4.93;;;1.23;;
71715;SDS011;59568;52.128;5.434;2023-08-06T14:24:51;2.42;;;0.85;;
71715;SDS011;59568;52.128;5.434;2023-08-06T14:27:18;6.17;;;1.10;;
71715;SDS011;59568;52.128;5.434;2023-08-06T14:29:45;6.55;;;1.00;;
71715;SDS011;59568;52.128;5.434;2023-08-06T14:32:12;3.08;;;1.02;;
71715;SDS011;59568;52.128;5.434;2023-08-06T14:34:45;5.43;;;1.25;;
71715;SDS011;59568;52.128;5.434;2023-08-06T14:37:12;3.45;;;0.93;;
71715;SDS011;59568;52.128;5.434;2023-08-06T14:39:44;3.97;;;1.00;;
71715;SDS011;59568;52.128;5.434;2023-08-06T14:42:11;2.80;;;1.50;;
71715;SDS011;59568;52.128;5.434;2023-08-06T14:44:39;3.28;;;1.25;;
71715;SDS011;59568;52.128;5.434;2023-08-06T14:47:07;2.80;;;0.80;;
71715;SDS011;59568;52.128;5.434;2023-08-06T14:49:36;4.00;;;1.10;;
71715;SDS011;59568;52.128;5.434;2023-08-06T14:52:05;3.37;;;1.27;;
71715;SDS011;59568;52.128;5.434;2023-08-06T14:54:37;2.17;;;1.10;;
71715;SDS011;59568;52.128;5.434;2023-08-06T14:57:07;3.70;;;1.20;;
71715;SDS011;59568;52.128;5.434;2023-08-06T14:59:54;3.40;;;0.82;;
71715;SDS011;59568;52.128;5.434;2023-08-06T15:02:40;2.78;;;1.40;;
71715;SDS011;59568;52.128;5.434;2023-08-06T15:05:20;2.07;;;0.70;;
71715;SDS011;59568;52.128;5.434;2023-08-06T15:07:47;2.50;;;1.30;;
71715;SDS011;59568;52.128;5.434;2023-08-06T15:10:14;3.67;;;1.17;;
71715;SDS011;59568;52.128;5.434;2023-08-06T15:12:45;4.15;;;1.30;;
71715;SDS011;59568;52.128;5.434;2023-08-06T15:15:13;2.38;;;1.00;;
71715;SDS011;59568;52.128;5.434;2023-08-06T15:17:41;2.80;;;0.70;;
71715;SDS011;59568;52.128;5.434;2023-08-06T15:20:08;3.47;;;0.68;;
71715;SDS011;59568;52.128;5.434;2023-08-06T15:22:35;3.47;;;0.52;;
71715;SDS011;59568;52.128;5.434;2023-08-06T15:25:02;2.58;;;0.77;;
71715;SDS011;59568;52.128;5.434;2023-08-06T15:27:29;4.95;;;0.60;;
71715;SDS011;59568;52.128;5.434;2023-08-06T15:29:56;1.90;;;0.50;;
71715;SDS011;59568;52.128;5.434;2023-08-06T15:32:23;4.15;;;0.40;;